createdAt,value
2022-10-11T00:00:32.925Z,96182.16
2022-10-11T00:03:21.496Z,96177.80
2022-10-11T00:05:49.432Z,96176.27
2022-10-11T00:08:17.456Z,96178.45
2022-10-11T00:10:45.593Z,96178.11
2022-10-11T00:13:13.520Z,96179.64
2022-10-11T00:15:41.594Z,96175.48
2022-10-11T00:18:09.915Z,96176.90
2022-10-11T00:20:38.148Z,96177.49
2022-10-11T00:23:05.961Z,96176.80
2022-10-11T00:25:34.188Z,96174.38
2022-10-11T00:28:02.041Z,96168.77
2022-10-11T00:30:29.960Z,96166.67
2022-10-11T00:32:58.205Z,96163.86
2022-10-11T00:35:26.498Z,96164.03
2022-10-11T00:37:56.195Z,96163.86
2022-10-11T00:40:24.228Z,96157.40
2022-10-11T00:42:52.443Z,96160.47
2022-10-11T00:45:40.691Z,96165.70
2022-10-11T00:48:14.896Z,96167.23
2022-10-11T00:50:43.492Z,96165.75
2022-10-11T00:53:12.300Z,96165.66
2022-10-11T00:56:03.922Z,96162.87
2022-10-11T00:58:34.234Z,96160.01
2022-10-11T01:01:02.647Z,96157.28
2022-10-11T01:03:31.667Z,96157.19
2022-10-11T01:05:59.535Z,96158.64
2022-10-11T01:08:28.421Z,96156.70
2022-10-11T01:10:56.957Z,96153.83
2022-10-11T01:13:24.931Z,96157.68
2022-10-11T01:15:52.930Z,96158.27
2022-10-11T01:18:56.505Z,96156.00
2022-10-11T01:21:43.562Z,96157.84
2022-10-11T01:24:27.495Z,96156.16
2022-10-11T01:27:01.483Z,96157.76
2022-10-11T01:29:29.451Z,96155.30
2022-10-11T01:32:00.324Z,96158.70
2022-10-11T01:34:33.981Z,96157.02
2022-10-11T01:37:08.212Z,96153.22
2022-10-11T01:39:42.627Z,96154.60
2022-10-11T01:42:12.586Z,96155.17
2022-10-11T01:44:42.672Z,96151.86
2022-10-11T01:47:10.748Z,96153.16
2022-10-11T01:49:39.361Z,96155.70
2022-10-11T01:52:07.627Z,96148.75
2022-10-11T01:55:08.570Z,96148.50
2022-10-11T01:58:02.531Z,96144.44
2022-10-11T02:00:56.631Z,96144.98
2022-10-11T02:03:30.741Z,96146.09
2022-10-11T02:06:11.912Z,96142.64
2022-10-11T02:08:42.958Z,96140.96
2022-10-11T02:11:30.803Z,96144.39
2022-10-11T02:14:03.783Z,96135.14
2022-10-11T02:16:35.370Z,96136.70
2022-10-11T02:19:05.567Z,96137.35
2022-10-11T02:21:34.805Z,96136.34
2022-10-11T02:24:12.574Z,96135.80
2022-10-11T02:26:42.376Z,96132.05
2022-10-11T02:29:12.600Z,96127.41
2022-10-11T02:31:42.355Z,96126.40
2022-10-11T02:34:28.513Z,96125.59
2022-10-11T02:36:56.379Z,96121.52
2022-10-11T02:39:32.028Z,96119.14
2022-10-11T02:42:02.663Z,96117.04
2022-10-11T02:44:39.338Z,96117.97
2022-10-11T02:47:07.923Z,96116.09
2022-10-11T02:49:36.278Z,96121.25
2022-10-11T02:52:05.233Z,96120.91
2022-10-11T02:54:33.295Z,96121.63
2022-10-11T02:57:01.501Z,96125.95
2022-10-11T02:59:29.432Z,96124.80
2022-10-11T03:01:57.371Z,96129.42
2022-10-11T03:04:25.769Z,96128.02
2022-10-11T03:06:53.738Z,96125.73
2022-10-11T03:09:21.609Z,96128.83
2022-10-11T03:11:49.682Z,96127.23
2022-10-11T03:14:17.657Z,96127.58
2022-10-11T03:16:45.829Z,96130.10
2022-10-11T03:19:18.331Z,96133.02
2022-10-11T03:21:47.550Z,96127.32
2022-10-11T03:24:15.781Z,96128.35
2022-10-11T03:26:43.837Z,96126.30
2022-10-11T03:29:11.652Z,96127.02
2022-10-11T03:31:39.799Z,96124.06
2022-10-11T03:34:07.821Z,96124.22
2022-10-11T03:36:36.260Z,96125.39
2022-10-11T03:39:04.734Z,96122.67
2022-10-11T03:41:32.565Z,96123.95
2022-10-11T03:44:00.573Z,96120.50
2022-10-11T03:46:28.573Z,96118.25
2022-10-11T03:48:56.513Z,96113.58
2022-10-11T03:51:24.532Z,96106.59
2022-10-11T03:53:52.460Z,96109.13
2022-10-11T03:56:20.529Z,96104.59
2022-10-11T03:58:48.546Z,96104.86
2022-10-11T04:01:16.628Z,96107.28
2022-10-11T04:03:44.647Z,96110.47
2022-10-11T04:06:12.637Z,96118.52
2022-10-11T04:08:40.690Z,96124.52
2022-10-11T04:11:08.677Z,96121.23
2022-10-11T04:13:36.640Z,96118.45
2022-10-11T04:16:05.241Z,96114.95
2022-10-11T04:18:33.395Z,96112.33
2022-10-11T04:21:01.570Z,96115.16
2022-10-11T04:23:30.793Z,96117.86
2022-10-11T04:25:58.739Z,96114.67
2022-10-11T04:28:26.630Z,96112.34
2022-10-11T04:30:54.889Z,96116.70
2022-10-11T04:33:22.858Z,96116.48
2022-10-11T04:35:53.817Z,96118.25
2022-10-11T04:38:22.180Z,96119.39
2022-10-11T04:40:50.290Z,96114.27
2022-10-11T04:43:19.147Z,96118.39
2022-10-11T04:45:47.224Z,96120.01
2022-10-11T04:48:15.533Z,96119.30
2022-10-11T04:50:44.703Z,96117.40
2022-10-11T04:53:17.480Z,96114.36
2022-10-11T04:55:55.550Z,96115.45
2022-10-11T04:58:23.374Z,96116.85
2022-10-11T05:00:51.326Z,96113.16
2022-10-11T05:03:19.325Z,96112.85
2022-10-11T05:05:47.574Z,96111.05
2022-10-11T05:08:15.750Z,96113.45
2022-10-11T05:10:43.822Z,96118.44
2022-10-11T05:13:11.701Z,96117.94
2022-10-11T05:15:39.765Z,96122.44
2022-10-11T05:18:07.841Z,96127.02
2022-10-11T05:20:35.811Z,96127.56
2022-10-11T05:23:03.569Z,96130.38
2022-10-11T05:25:31.648Z,96131.38
2022-10-11T05:27:59.635Z,96129.52
2022-10-11T05:30:27.591Z,96130.50
2022-10-11T05:32:55.570Z,96131.85
2022-10-11T05:35:23.349Z,96127.59
2022-10-11T05:37:51.401Z,96128.91
2022-10-11T05:40:19.394Z,96130.64
2022-10-11T05:42:47.239Z,96134.02
2022-10-11T05:45:15.072Z,96134.88
2022-10-11T05:47:42.897Z,96131.23
2022-10-11T05:50:11.255Z,96137.40
2022-10-11T05:52:39.094Z,96143.41
2022-10-11T05:55:07.534Z,96146.09
2022-10-11T05:57:35.578Z,96152.95
2022-10-11T06:00:04.699Z,96163.14
2022-10-11T06:02:40.850Z,96163.40
2022-10-11T06:05:09.128Z,96157.45
2022-10-11T06:07:37.765Z,96161.77
2022-10-11T06:10:06.811Z,96168.27
2022-10-11T06:12:34.773Z,96172.63
2022-10-11T06:15:03.703Z,96171.31
2022-10-11T06:17:31.953Z,96169.38
2022-10-11T06:19:59.911Z,96171.80
2022-10-11T06:22:27.884Z,96171.48
2022-10-11T06:24:55.737Z,96170.75
2022-10-11T06:27:23.696Z,96171.97
2022-10-11T06:29:51.611Z,96174.86
2022-10-11T06:32:19.535Z,96174.27
2022-10-11T06:34:47.602Z,96181.13
2022-10-11T06:37:16.322Z,96184.52
2022-10-11T06:40:09.792Z,96185.15
2022-10-11T06:42:38.483Z,96187.61
2022-10-11T06:45:07.178Z,96184.46
2022-10-11T06:47:35.115Z,96180.64
2022-10-11T06:50:03.222Z,96180.46
2022-10-11T06:52:31.702Z,96182.52
2022-10-11T06:54:59.796Z,96185.76
2022-10-11T06:57:29.418Z,96184.48
2022-10-11T06:59:57.757Z,96189.92
2022-10-11T07:02:25.727Z,96191.76
2022-10-11T07:04:53.715Z,96190.52
2022-10-11T07:07:21.674Z,96191.48
2022-10-11T07:09:50.091Z,96189.81
2022-10-11T07:12:17.926Z,96191.23
2022-10-11T07:14:45.782Z,96192.86
2022-10-11T07:17:13.659Z,96189.70
2022-10-11T07:19:41.797Z,96190.22
2022-10-11T07:22:09.594Z,96194.81
2022-10-11T07:24:37.774Z,96194.61
2022-10-11T07:27:06.173Z,96196.30
2022-10-11T07:29:34.227Z,96196.44
2022-10-11T07:32:02.198Z,96199.55
2022-10-11T07:34:30.174Z,96197.66
2022-10-11T07:36:58.538Z,96198.67
2022-10-11T07:39:26.897Z,96202.33
2022-10-11T07:41:54.799Z,96202.19
2022-10-11T07:44:22.646Z,96200.05
2022-10-11T07:46:50.601Z,96204.83
2022-10-11T07:49:18.609Z,96204.93
2022-10-11T07:51:46.683Z,96202.20
2022-10-11T07:54:14.666Z,96204.52
2022-10-11T07:56:44.040Z,96203.98
2022-10-11T07:59:12.156Z,96203.32
2022-10-11T08:01:40.217Z,96206.44
2022-10-11T08:04:08.112Z,96205.20
2022-10-11T08:06:36.743Z,96206.06
2022-10-11T08:09:05.745Z,96204.90
2022-10-11T08:11:36.083Z,96204.37
2022-10-11T08:14:08.884Z,96205.62
2022-10-11T08:16:38.194Z,96207.85
2022-10-11T08:19:06.809Z,96207.85
2022-10-11T08:21:35.008Z,96210.36
2022-10-11T08:24:04.026Z,96206.31
2022-10-11T08:26:32.782Z,96205.02
2022-10-11T08:29:05.429Z,96207.92
2022-10-11T08:31:34.600Z,96207.65
2022-10-11T08:34:03.019Z,96204.58
2022-10-11T08:36:31.257Z,96206.39
2022-10-11T08:38:59.125Z,96205.65
2022-10-11T08:41:27.121Z,96207.63
2022-10-11T08:43:58.239Z,96213.52
2022-10-11T08:46:31.091Z,96207.19
2022-10-11T08:49:00.218Z,96201.99
2022-10-11T08:51:50.413Z,96203.25
2022-10-11T08:54:27.191Z,96201.65
2022-10-11T08:56:55.086Z,96199.20
2022-10-11T08:59:37.785Z,96195.17
2022-10-11T09:02:24.909Z,96193.38
2022-10-11T09:04:56.145Z,96190.54
2022-10-11T09:07:27.291Z,96192.79
2022-10-11T09:09:56.183Z,96190.77
2022-10-11T09:12:46.890Z,96192.61
2022-10-11T09:15:29.420Z,96185.66
2022-10-11T09:18:03.631Z,96187.15
2022-10-11T09:20:34.567Z,96183.70
2022-10-11T09:23:25.881Z,96181.37
2022-10-11T09:26:06.560Z,96185.16
2022-10-11T09:28:44.304Z,96181.89
2022-10-11T09:31:12.726Z,96183.90
2022-10-11T09:33:48.100Z,96183.86
2022-10-11T09:36:16.144Z,96185.48
2022-10-11T09:39:06.631Z,96184.08
2022-10-11T09:41:34.890Z,96187.27
2022-10-11T09:44:03.032Z,96186.81
2022-10-11T09:46:31.067Z,96187.00
2022-10-11T09:49:01.377Z,96182.80
2022-10-11T09:51:30.112Z,96181.02
2022-10-11T09:54:00.410Z,96182.73
2022-10-11T09:56:30.032Z,96185.27
2022-10-11T09:59:16.829Z,96185.52
2022-10-11T10:01:44.994Z,96185.58
2022-10-11T10:04:14.812Z,96185.84
2022-10-11T10:06:42.899Z,96186.16
2022-10-11T10:09:22.437Z,96184.40
2022-10-11T10:11:50.371Z,96184.53
2022-10-11T10:14:23.215Z,96183.77
2022-10-11T10:16:58.557Z,96181.17
2022-10-11T10:19:26.607Z,96183.30
2022-10-11T10:21:56.585Z,96182.16
2022-10-11T10:24:33.710Z,96179.20
2022-10-11T10:27:10.738Z,96174.36
2022-10-11T10:29:39.430Z,96173.23
2022-10-11T10:32:14.990Z,96175.96
2022-10-11T10:35:03.080Z,96171.76
2022-10-11T10:37:43.547Z,96174.61
2022-10-11T10:40:18.687Z,96178.21
2022-10-11T10:42:46.625Z,96177.61
2022-10-11T10:45:21.241Z,96172.65
2022-10-11T10:47:59.587Z,96173.13
2022-10-11T10:50:30.946Z,96175.26
2022-10-11T10:53:11.961Z,96174.45
2022-10-11T10:55:45.331Z,96171.69
2022-10-11T10:58:18.492Z,96170.34
2022-10-11T11:00:48.649Z,96165.08
2022-10-11T11:03:22.946Z,96168.33
2022-10-11T11:05:54.096Z,96162.19
2022-10-11T11:08:40.986Z,96159.73
2022-10-11T11:11:28.546Z,96156.39
2022-10-11T11:14:03.230Z,96159.25
2022-10-11T11:16:31.034Z,96160.98
2022-10-11T11:19:05.541Z,96157.28
2022-10-11T11:21:53.559Z,96156.80
2022-10-11T11:24:21.471Z,96155.20
2022-10-11T11:26:55.766Z,96147.57
2022-10-11T11:29:33.624Z,96151.56
2022-10-11T11:32:07.704Z,96155.79
2022-10-11T11:34:43.002Z,96154.45
2022-10-11T11:37:19.578Z,96154.27
2022-10-11T11:39:53.436Z,96148.20
2022-10-11T11:42:24.549Z,96146.27
2022-10-11T11:44:53.374Z,96144.27
2022-10-11T11:47:27.786Z,96139.95
2022-10-11T11:49:55.900Z,96136.52
2022-10-11T11:52:27.724Z,96133.77
2022-10-11T11:55:04.108Z,96131.70
2022-10-11T11:57:53.094Z,96134.25
2022-10-11T12:00:22.663Z,96131.63
2022-10-11T12:02:57.187Z,96132.27
2022-10-11T12:05:28.670Z,96130.83
2022-10-11T12:08:01.325Z,96132.02
2022-10-11T12:10:36.167Z,96130.46
2022-10-11T12:13:17.259Z,96129.83
2022-10-11T12:15:57.711Z,96129.98
2022-10-11T12:18:26.350Z,96130.52
2022-10-11T12:21:08.588Z,96131.01
2022-10-11T12:23:42.089Z,96127.17
2022-10-11T12:26:18.994Z,96120.33
2022-10-11T12:29:00.373Z,96121.76
2022-10-11T12:31:30.207Z,96121.65
2022-10-11T12:34:01.455Z,96119.23
2022-10-11T12:36:32.193Z,96118.13
2022-10-11T12:39:18.669Z,96122.30
2022-10-11T12:41:47.449Z,96119.89
2022-10-11T12:44:18.184Z,96120.25
2022-10-11T12:46:55.193Z,96119.52
2022-10-11T12:49:38.607Z,96124.38
2022-10-11T12:52:25.478Z,96128.02
2022-10-11T12:55:05.896Z,96129.91
2022-10-11T12:57:49.417Z,96125.88
2022-10-11T13:00:18.203Z,96124.05
2022-10-11T13:02:46.928Z,96117.17
2022-10-11T13:05:23.891Z,96115.18
2022-10-11T13:07:53.689Z,96109.76
2022-10-11T13:10:25.062Z,96111.27
2022-10-11T13:12:53.827Z,96109.80
2022-10-11T13:15:22.926Z,96110.45
2022-10-11T13:17:54.309Z,96112.12
2022-10-11T13:20:26.271Z,96107.66
2022-10-11T13:22:55.861Z,96106.64
2022-10-11T13:25:25.970Z,96106.41
2022-10-11T13:27:56.195Z,96104.04
2022-10-11T13:30:26.001Z,96099.95
2022-10-11T13:32:55.720Z,96104.15
2022-10-11T13:35:44.070Z,96101.67
2022-10-11T13:38:19.827Z,96101.52
2022-10-11T13:40:50.845Z,96102.95
2022-10-11T13:43:24.976Z,96097.84
2022-10-11T13:45:56.842Z,96100.31
2022-10-11T13:48:30.764Z,96098.83
2022-10-11T13:51:09.226Z,96098.83
2022-10-11T13:53:37.364Z,96101.29
2022-10-11T13:56:07.775Z,96103.28
2022-10-11T13:58:44.965Z,96101.02
2022-10-11T14:01:21.599Z,96105.42
2022-10-11T14:03:55.343Z,96108.11
2022-10-11T14:06:23.500Z,96105.23
2022-10-11T14:08:54.405Z,96106.91
2022-10-11T14:11:35.896Z,96110.13
2022-10-11T14:14:22.964Z,96109.42
2022-10-11T14:16:58.168Z,96109.58
2022-10-11T14:19:25.984Z,96110.30
2022-10-11T14:21:54.452Z,96112.39
2022-10-11T14:24:23.151Z,96112.09
2022-10-11T14:26:53.158Z,96107.40
2022-10-11T14:29:21.801Z,96109.29
2022-10-11T14:31:50.126Z,96112.77
2022-10-11T14:34:22.295Z,96111.77
2022-10-11T14:36:50.550Z,96108.82
2022-10-11T14:39:20.240Z,96108.84
2022-10-11T14:41:48.328Z,96106.41
2022-10-11T14:44:19.441Z,96103.25
2022-10-11T14:46:48.027Z,96103.79
2022-10-11T14:49:17.556Z,96106.45
2022-10-11T14:51:47.312Z,96104.80
2022-10-11T14:54:16.016Z,96106.21
2022-10-11T14:56:43.913Z,96107.90
2022-10-11T14:59:15.725Z,96111.11
2022-10-11T15:01:43.959Z,96107.59
2022-10-11T15:04:13.237Z,96108.73
2022-10-11T15:06:41.993Z,96110.25
2022-10-11T15:09:10.555Z,96111.30
2022-10-11T15:11:38.963Z,96115.52
2022-10-11T15:14:07.323Z,96113.58
2022-10-11T15:16:35.862Z,96112.30
2022-10-11T15:19:04.125Z,96119.56
2022-10-11T15:21:32.722Z,96119.96
2022-10-11T15:24:00.964Z,96123.42
2022-10-11T15:26:29.663Z,96123.47
2022-10-11T15:28:57.809Z,96128.00
2022-10-11T15:31:26.108Z,96128.66
2022-10-11T15:33:54.213Z,96131.39
2022-10-11T15:36:22.667Z,96134.46
2022-10-11T15:38:50.736Z,96135.86
2022-10-11T15:41:20.079Z,96138.36
2022-10-11T15:43:49.038Z,96137.15
2022-10-11T15:46:22.243Z,96139.29
2022-10-11T15:48:51.324Z,96141.08
2022-10-11T15:51:19.909Z,96142.80
2022-10-11T15:53:47.926Z,96143.81
2022-10-11T15:56:17.592Z,96145.60
2022-10-11T15:58:46.074Z,96149.71
2022-10-11T16:01:14.130Z,96148.34
2022-10-11T16:03:43.143Z,96150.40
2022-10-11T16:06:11.729Z,96153.80
2022-10-11T16:08:40.519Z,96152.47
2022-10-11T16:11:09.205Z,96153.11
2022-10-11T16:13:37.606Z,96157.88
2022-10-11T16:16:06.464Z,96158.52
2022-10-11T16:18:36.249Z,96159.77
2022-10-11T16:21:09.652Z,96160.85
2022-10-11T16:23:38.584Z,96165.42
2022-10-11T16:26:08.304Z,96164.48
2022-10-11T16:28:38.057Z,96169.45
2022-10-11T16:31:07.719Z,96172.40
2022-10-11T16:33:35.860Z,96174.16
2022-10-11T16:36:26.073Z,96175.83
2022-10-11T16:38:53.902Z,96181.53
2022-10-11T16:41:22.030Z,96181.73
2022-10-11T16:43:53.485Z,96181.55
2022-10-11T16:46:21.769Z,96182.48
2022-10-11T16:48:49.836Z,96186.13
2022-10-11T16:51:17.729Z,96187.40
2022-10-11T16:53:45.780Z,96189.34
2022-10-11T16:56:13.793Z,96191.41
2022-10-11T16:58:41.944Z,96193.00
2022-10-11T17:01:10.876Z,96195.14
2022-10-11T17:03:39.322Z,96195.05
2022-10-11T17:06:07.703Z,96199.14
2022-10-11T17:08:36.516Z,96194.83
2022-10-11T17:11:04.545Z,96194.73
2022-10-11T17:13:32.391Z,96194.65
2022-10-11T17:16:00.301Z,96198.21
2022-10-11T17:18:28.864Z,96197.69
2022-10-11T17:21:02.958Z,96202.52
2022-10-11T17:23:30.891Z,96206.38
2022-10-11T17:26:01.481Z,96209.31
2022-10-11T17:28:31.252Z,96209.89
2022-10-11T17:30:59.721Z,96213.79
2022-10-11T17:33:28.362Z,96217.09
2022-10-11T17:35:57.624Z,96216.16
2022-10-11T17:38:29.020Z,96212.43
2022-10-11T17:41:01.696Z,96215.30
2022-10-11T17:43:31.146Z,96214.86
2022-10-11T17:46:00.613Z,96213.52
2022-10-11T17:48:28.990Z,96214.42
2022-10-11T17:50:56.800Z,96212.24
2022-10-11T17:53:24.829Z,96211.90
2022-10-11T17:55:54.436Z,96210.23
2022-10-11T17:58:22.518Z,96208.63
2022-10-11T18:00:51.163Z,96209.05
2022-10-11T18:03:19.114Z,96210.38
2022-10-11T18:05:47.141Z,96212.69
2022-10-11T18:08:15.317Z,96212.31
2022-10-11T18:10:46.765Z,96213.86
2022-10-11T18:13:15.661Z,96215.54
2022-10-11T18:15:43.668Z,96216.34
2022-10-11T18:18:11.935Z,96212.47
2022-10-11T18:20:44.292Z,96214.84
2022-10-11T18:23:12.386Z,96215.96
2022-10-11T18:25:40.242Z,96215.28
2022-10-11T18:28:08.255Z,96212.55
2022-10-11T18:30:36.481Z,96206.67
2022-10-11T18:33:04.464Z,96208.05
2022-10-11T18:35:32.622Z,96203.19
2022-10-11T18:38:01.121Z,96208.34
2022-10-11T18:40:29.247Z,96204.18
2022-10-11T18:42:57.064Z,96203.56
2022-10-11T18:45:25.016Z,96200.52
2022-10-11T18:47:52.925Z,96201.04
2022-10-11T18:50:20.752Z,96199.34
2022-10-11T18:52:48.986Z,96201.25
2022-10-11T18:55:17.106Z,96201.12
2022-10-11T18:57:45.080Z,96201.13
2022-10-11T19:00:37.782Z,96203.90
2022-10-11T19:03:01.353Z,96203.30
2022-10-11T19:05:29.264Z,96202.52
2022-10-11T19:07:57.236Z,96204.16
2022-10-11T19:10:25.446Z,96206.10
2022-10-11T19:12:53.380Z,96203.73
2022-10-11T19:15:24.160Z,96207.91
2022-10-11T19:17:54.474Z,96208.25
2022-10-11T19:20:22.622Z,96208.04
2022-10-11T19:22:50.432Z,96210.05
2022-10-11T19:25:18.358Z,96212.09
2022-10-11T19:27:46.473Z,96213.58
2022-10-11T19:30:14.510Z,96212.45
2022-10-11T19:32:42.451Z,96213.30
2022-10-11T19:35:10.361Z,96213.92
2022-10-11T19:37:38.517Z,96214.66
2022-10-11T19:40:07.205Z,96216.35
2022-10-11T19:42:36.099Z,96216.73
2022-10-11T19:45:04.189Z,96217.33
2022-10-11T19:47:32.453Z,96218.41
2022-10-11T19:50:01.034Z,96222.79
2022-10-11T19:52:29.149Z,96222.19
2022-10-11T19:54:57.180Z,96221.12
2022-10-11T19:57:25.156Z,96222.46
2022-10-11T19:59:53.244Z,96224.11
2022-10-11T20:02:21.090Z,96222.86
2022-10-11T20:04:53.325Z,96222.56
2022-10-11T20:07:21.447Z,96221.70
2022-10-11T20:09:49.298Z,96222.02
2022-10-11T20:12:17.220Z,96222.08
2022-10-11T20:14:45.250Z,96217.40
2022-10-11T20:17:13.843Z,96218.15
2022-10-11T20:19:41.812Z,96219.95
2022-10-11T20:22:09.879Z,96218.99
2022-10-11T20:24:37.848Z,96213.61
2022-10-11T20:27:06.337Z,96217.41
2022-10-11T20:29:34.652Z,96216.82
2022-10-11T20:32:02.585Z,96222.25
2022-10-11T20:34:30.763Z,96218.80
2022-10-11T20:36:59.679Z,96219.25
2022-10-11T20:39:27.729Z,96217.88
2022-10-11T20:41:55.560Z,96215.73
2022-10-11T20:44:23.872Z,96212.77
2022-10-11T20:46:51.954Z,96213.98
2022-10-11T20:49:20.205Z,96214.66
2022-10-11T20:51:48.497Z,96212.14
2022-10-11T20:54:16.637Z,96214.77
2022-10-11T20:56:44.491Z,96219.81
2022-10-11T20:59:12.514Z,96220.77
2022-10-11T21:01:41.873Z,96220.42
2022-10-11T21:04:14.497Z,96221.24
2022-10-11T21:06:42.469Z,96222.27
2022-10-11T21:09:12.612Z,96222.75
2022-10-11T21:11:44.154Z,96227.61
2022-10-11T21:14:12.092Z,96225.52
2022-10-11T21:16:40.086Z,96226.58
2022-10-11T21:19:12.268Z,96225.59
2022-10-11T21:21:40.434Z,96223.77
2022-10-11T21:24:08.504Z,96222.86
2022-10-11T21:26:36.477Z,96222.30
2022-10-11T21:29:04.383Z,96223.64
2022-10-11T21:31:34.357Z,96221.92
2022-10-11T21:34:05.353Z,96218.23
2022-10-11T21:36:33.486Z,96218.85
2022-10-11T21:39:01.563Z,96222.82
2022-10-11T21:41:34.173Z,96225.08
2022-10-11T21:44:02.224Z,96223.54
2022-10-11T21:49:19.957Z,96221.30
2022-10-11T21:51:48.591Z,96223.62
2022-10-11T21:54:16.827Z,96222.26
2022-10-11T21:56:44.793Z,96221.94
2022-10-11T21:59:12.934Z,96225.24
2022-10-11T22:01:41.315Z,96226.45
2022-10-11T22:04:10.550Z,96226.90
2022-10-11T22:06:39.492Z,96225.15
2022-10-11T22:09:08.328Z,96223.96
2022-10-11T22:11:36.749Z,96225.43
2022-10-11T22:14:04.893Z,96225.91
2022-10-11T22:16:34.149Z,96226.34
2022-10-11T22:19:02.098Z,96225.69
2022-10-11T22:21:30.952Z,96228.71
2022-10-11T22:23:58.963Z,96227.30
2022-10-11T22:26:30.848Z,96225.62
2022-10-11T22:29:00.364Z,96227.55
2022-10-11T22:31:28.839Z,96227.52
2022-10-11T22:33:57.979Z,96225.34
2022-10-11T22:36:26.776Z,96229.73
2022-10-11T22:38:54.956Z,96230.38
2022-10-11T22:41:23.632Z,96233.10
2022-10-11T22:43:52.070Z,96232.06
2022-10-11T22:46:19.906Z,96231.31
2022-10-11T22:48:48.031Z,96232.31
2022-10-11T22:51:15.936Z,96233.77
2022-10-11T22:53:43.996Z,96231.61
2022-10-11T22:56:11.917Z,96233.06
2022-10-11T22:58:39.834Z,96230.80
2022-10-11T23:01:08.592Z,96230.91
2022-10-11T23:03:36.481Z,96230.37
2022-10-11T23:06:04.868Z,96229.73
2022-10-11T23:08:32.995Z,96234.14
2022-10-11T23:11:04.915Z,96236.73
2022-10-11T23:13:33.174Z,96237.09
2022-10-11T23:18:38.791Z,96233.14
2022-10-11T23:21:07.355Z,96228.13
2022-10-11T23:23:35.682Z,96233.10
2022-10-11T23:26:08.511Z,96235.02
2022-10-11T23:28:36.835Z,96230.13
2022-10-11T23:31:08.708Z,96233.63
2022-10-11T23:33:37.057Z,96231.45
2022-10-11T23:36:05.721Z,96234.21
2022-10-11T23:38:33.704Z,96235.98
2022-10-11T23:41:01.651Z,96238.06
2022-10-11T23:43:29.483Z,96239.20
2022-10-11T23:45:57.508Z,96238.25
2022-10-11T23:48:25.469Z,96241.02
2022-10-11T23:50:53.448Z,96241.64
2022-10-11T23:53:21.511Z,96238.98
2022-10-11T23:55:49.534Z,96240.39
2022-10-11T23:58:17.555Z,96243.29
